createdAt,value
2022-10-09T00:01:31.325Z,4.25
2022-10-09T00:03:59.268Z,4.13
2022-10-09T00:06:29.518Z,3.75
2022-10-09T00:08:56.639Z,4.13
2022-10-09T00:11:26.190Z,3.78
2022-10-09T00:13:53.746Z,4.03
2022-10-09T00:16:21.638Z,3.83
2022-10-09T00:18:48.894Z,3.72
2022-10-09T00:21:27.158Z,3.47
2022-10-09T00:23:55.646Z,3.92
2022-10-09T00:26:22.495Z,3.50
2022-10-09T00:28:49.695Z,3.55
2022-10-09T00:31:16.722Z,3.80
2022-10-09T00:33:43.324Z,3.47
2022-10-09T00:36:12.985Z,3.67
2022-10-09T00:38:39.517Z,3.60
2022-10-09T00:41:06.638Z,3.25
2022-10-09T00:43:49.811Z,3.47
2022-10-09T00:46:33.692Z,3.63
2022-10-09T00:49:05.529Z,3.22
2022-10-09T00:51:33.952Z,3.30
2022-10-09T00:54:02.961Z,3.63
2022-10-09T00:56:29.485Z,3.42
2022-10-09T00:58:58.004Z,3.17
2022-10-09T01:01:24.545Z,3.50
2022-10-09T01:03:51.771Z,3.30
2022-10-09T01:06:48.135Z,3.40
2022-10-09T01:09:22.745Z,3.20
2022-10-09T01:12:00.533Z,3.28
2022-10-09T01:14:38.908Z,2.90
2022-10-09T01:17:17.944Z,3.28
2022-10-09T01:20:02.391Z,3.28
2022-10-09T01:22:47.918Z,2.92
2022-10-09T01:25:50.116Z,2.63
2022-10-09T01:28:20.906Z,3.00
2022-10-09T01:30:48.518Z,3.30
2022-10-09T01:33:16.441Z,2.88
2022-10-09T01:35:45.394Z,3.00
2022-10-09T01:38:11.995Z,3.20
2022-10-09T01:40:39.221Z,2.85
2022-10-09T01:43:05.828Z,2.97
2022-10-09T01:45:44.953Z,3.00
2022-10-09T01:48:17.715Z,3.00
2022-10-09T01:50:48.040Z,3.67
2022-10-09T01:53:19.680Z,3.13
2022-10-09T01:55:55.073Z,2.78
2022-10-09T01:58:21.440Z,2.97
2022-10-09T02:01:01.749Z,3.55
2022-10-09T02:03:30.359Z,3.25
2022-10-09T02:05:58.096Z,3.22
2022-10-09T02:08:25.736Z,3.20
2022-10-09T02:10:56.344Z,2.67
2022-10-09T02:13:23.523Z,2.85
2022-10-09T02:15:56.317Z,2.80
2022-10-09T02:18:38.542Z,2.90
2022-10-09T02:21:12.223Z,2.92
2022-10-09T02:23:41.405Z,2.72
2022-10-09T02:26:10.007Z,3.00
2022-10-09T02:28:37.466Z,2.83
2022-10-09T02:31:12.085Z,3.15
2022-10-09T02:33:38.675Z,2.92
2022-10-09T02:36:05.543Z,3.10
2022-10-09T02:38:31.956Z,2.85
2022-10-09T02:41:01.889Z,2.80
2022-10-09T02:43:28.628Z,3.13
2022-10-09T02:45:55.035Z,3.00
2022-10-09T02:48:21.471Z,2.80
2022-10-09T02:50:47.959Z,2.78
2022-10-09T02:53:14.366Z,2.83
2022-10-09T02:55:40.791Z,3.10
2022-10-09T02:58:07.174Z,2.83
2022-10-09T03:00:33.561Z,2.90
2022-10-09T03:02:59.991Z,3.42
2022-10-09T03:05:26.491Z,3.40
2022-10-09T03:07:53.589Z,3.10
2022-10-09T03:10:21.066Z,2.95
2022-10-09T03:12:48.380Z,3.08
2022-10-09T03:15:15.380Z,3.00
2022-10-09T03:17:41.755Z,2.90
2022-10-09T03:20:08.663Z,3.17
2022-10-09T03:22:35.046Z,2.80
2022-10-09T03:25:01.437Z,3.00
2022-10-09T03:27:27.838Z,2.97
2022-10-09T03:29:54.239Z,3.00
2022-10-09T03:32:20.671Z,2.92
2022-10-09T03:34:47.092Z,2.55
2022-10-09T03:37:13.474Z,3.30
2022-10-09T03:39:39.906Z,2.58
2022-10-09T03:42:06.364Z,2.92
2022-10-09T03:44:32.750Z,2.60
2022-10-09T03:46:59.225Z,2.70
2022-10-09T03:49:25.842Z,2.88
2022-10-09T03:51:52.244Z,2.85
2022-10-09T03:54:18.623Z,2.70
2022-10-09T03:56:44.999Z,2.75
2022-10-09T03:59:11.409Z,2.83
2022-10-09T04:01:37.831Z,2.80
2022-10-09T04:04:04.264Z,2.75
2022-10-09T04:06:30.727Z,2.60
2022-10-09T04:08:57.139Z,2.85
2022-10-09T04:11:23.553Z,2.72
2022-10-09T04:13:49.951Z,2.72
2022-10-09T04:16:16.730Z,3.13
2022-10-09T04:18:44.247Z,2.78
2022-10-09T04:21:12.951Z,3.05
2022-10-09T04:23:39.661Z,3.20
2022-10-09T04:26:06.630Z,2.70
2022-10-09T04:28:33.119Z,2.55
2022-10-09T04:30:59.604Z,3.05
2022-10-09T04:33:26.963Z,3.00
2022-10-09T04:35:54.968Z,2.95
2022-10-09T04:38:21.812Z,3.05
2022-10-09T04:41:02.908Z,2.88
2022-10-09T04:43:29.684Z,2.67
2022-10-09T04:45:56.284Z,2.63
2022-10-09T04:48:22.810Z,2.50
2022-10-09T04:50:49.256Z,3.10
2022-10-09T04:53:15.729Z,2.70
2022-10-09T04:55:43.592Z,3.10
2022-10-09T04:58:11.820Z,2.65
2022-10-09T05:00:42.845Z,3.10
2022-10-09T05:03:10.165Z,2.90
2022-10-09T05:05:37.047Z,2.90
2022-10-09T05:08:04.033Z,3.03
2022-10-09T05:10:32.235Z,2.90
2022-10-09T05:12:59.485Z,2.67
2022-10-09T05:15:25.965Z,3.42
2022-10-09T05:17:52.348Z,3.33
2022-10-09T05:20:18.736Z,3.90
2022-10-09T05:22:45.983Z,4.40
2022-10-09T05:25:12.722Z,5.38
2022-10-09T05:27:39.206Z,4.90
2022-10-09T05:30:06.872Z,4.55
2022-10-09T05:32:33.261Z,4.35
2022-10-09T05:34:59.643Z,3.95
2022-10-09T05:37:26.001Z,3.55
2022-10-09T05:39:52.386Z,3.30
2022-10-09T05:42:18.757Z,3.70
2022-10-09T05:44:45.168Z,3.35
2022-10-09T05:47:13.517Z,3.92
2022-10-09T05:49:39.909Z,4.55
2022-10-09T05:52:06.285Z,4.07
2022-10-09T05:54:32.671Z,4.20
2022-10-09T05:56:59.107Z,3.70
2022-10-09T05:59:25.644Z,3.90
2022-10-09T06:01:53.398Z,3.60
2022-10-09T06:04:24.507Z,3.70
2022-10-09T06:06:51.370Z,3.47
2022-10-09T06:09:22.773Z,3.85
2022-10-09T06:11:50.841Z,3.65
2022-10-09T06:14:17.412Z,3.55
2022-10-09T06:16:45.447Z,3.60
2022-10-09T06:19:13.804Z,3.92
2022-10-09T06:21:40.676Z,3.72
2022-10-09T06:24:07.516Z,3.25
2022-10-09T06:26:34.464Z,4.13
2022-10-09T06:29:02.464Z,4.15
2022-10-09T06:31:31.652Z,3.95
2022-10-09T06:34:02.507Z,4.60
2022-10-09T06:36:32.212Z,4.28
2022-10-09T06:38:59.947Z,4.95
2022-10-09T06:41:28.164Z,4.30
2022-10-09T06:43:56.905Z,4.50
2022-10-09T06:46:26.172Z,4.90
2022-10-09T06:48:52.792Z,4.38
2022-10-09T06:51:21.660Z,4.53
2022-10-09T06:53:50.662Z,4.13
2022-10-09T06:56:19.055Z,4.45
2022-10-09T06:58:46.085Z,4.45
2022-10-09T07:01:15.226Z,5.15
2022-10-09T07:03:43.642Z,4.97
2022-10-09T07:06:18.929Z,4.85
2022-10-09T07:08:47.789Z,4.70
2022-10-09T07:11:21.288Z,4.85
2022-10-09T07:13:50.084Z,5.07
2022-10-09T07:16:21.805Z,4.75
2022-10-09T07:18:48.999Z,4.85
2022-10-09T07:21:16.111Z,4.80
2022-10-09T07:23:43.067Z,5.32
2022-10-09T07:26:15.943Z,5.93
2022-10-09T07:28:43.684Z,5.63
2022-10-09T07:31:11.135Z,5.53
2022-10-09T07:33:37.849Z,5.60
2022-10-09T07:36:05.600Z,5.50
2022-10-09T07:38:32.170Z,5.70
2022-10-09T07:41:06.069Z,5.30
2022-10-09T07:43:35.141Z,5.30
2022-10-09T07:46:02.514Z,5.72
2022-10-09T07:48:29.306Z,5.20
2022-10-09T07:50:55.971Z,5.45
2022-10-09T07:53:23.322Z,5.30
2022-10-09T07:55:50.061Z,5.80
2022-10-09T07:58:17.236Z,5.82
2022-10-09T08:00:44.314Z,5.47
2022-10-09T08:03:10.956Z,5.15
2022-10-09T08:05:37.445Z,5.80
2022-10-09T08:08:04.167Z,5.65
2022-10-09T08:10:31.464Z,5.53
2022-10-09T08:12:57.887Z,4.95
2022-10-09T08:15:24.428Z,5.72
2022-10-09T08:17:54.822Z,5.45
2022-10-09T08:20:21.254Z,5.93
2022-10-09T08:22:47.937Z,5.18
2022-10-09T08:25:14.811Z,5.00
2022-10-09T08:27:41.223Z,5.07
2022-10-09T08:30:08.366Z,5.00
2022-10-09T08:32:34.752Z,4.97
2022-10-09T08:35:01.155Z,4.88
2022-10-09T08:37:27.532Z,5.07
2022-10-09T08:39:53.971Z,5.35
2022-10-09T08:42:35.643Z,5.05
2022-10-09T08:45:02.739Z,4.68
2022-10-09T08:47:40.878Z,5.70
2022-10-09T08:50:18.801Z,5.05
2022-10-09T08:53:13.398Z,5.07
2022-10-09T08:55:53.651Z,5.25
2022-10-09T08:58:21.283Z,4.72
2022-10-09T09:01:07.658Z,5.05
2022-10-09T09:04:03.512Z,5.18
2022-10-09T09:07:13.052Z,5.28
2022-10-09T09:09:45.254Z,4.70
2022-10-09T09:12:41.277Z,4.78
2022-10-09T09:15:25.346Z,4.80
2022-10-09T09:18:04.599Z,5.18
2022-10-09T09:20:52.230Z,4.80
2022-10-09T09:23:27.528Z,4.80
2022-10-09T09:25:54.156Z,5.57
2022-10-09T09:28:26.367Z,4.97
2022-10-09T09:31:13.068Z,5.15
2022-10-09T09:33:46.787Z,5.18
2022-10-09T09:36:29.284Z,4.03
2022-10-09T09:39:45.569Z,3.75
2022-10-09T09:41:43.443Z,3.78
2022-10-09T09:44:12.956Z,4.13
2022-10-09T09:46:40.507Z,3.80
2022-10-09T09:49:27.124Z,4.22
2022-10-09T09:51:56.096Z,4.07
2022-10-09T09:54:25.931Z,4.07
2022-10-09T09:57:14.924Z,4.25
2022-10-09T09:59:43.893Z,3.53
2022-10-09T10:02:23.835Z,3.58
2022-10-09T10:04:57.820Z,3.58
2022-10-09T10:07:32.473Z,3.60
2022-10-09T10:10:25.752Z,3.90
2022-10-09T10:12:52.664Z,3.58
2022-10-09T10:15:23.863Z,3.67
2022-10-09T10:17:58.430Z,3.63
2022-10-09T10:20:25.472Z,3.67
2022-10-09T10:22:57.331Z,3.72
2022-10-09T10:25:29.631Z,3.78
2022-10-09T10:28:20.492Z,3.88
2022-10-09T10:30:49.641Z,3.80
2022-10-09T10:33:22.349Z,4.07
2022-10-09T10:35:52.805Z,3.50
2022-10-09T10:38:31.267Z,3.97
2022-10-09T10:41:19.167Z,3.40
2022-10-09T10:43:51.281Z,3.50
2022-10-09T10:46:28.224Z,3.60
2022-10-09T10:48:54.645Z,3.92
2022-10-09T10:51:39.798Z,3.65
2022-10-09T10:54:39.192Z,3.47
2022-10-09T10:57:29.967Z,3.28
2022-10-09T11:00:06.810Z,3.42
2022-10-09T11:03:06.281Z,2.47
2022-10-09T11:06:00.730Z,3.08
2022-10-09T11:08:45.919Z,3.15
2022-10-09T11:11:22.212Z,3.67
2022-10-09T11:14:25.953Z,4.03
2022-10-09T11:17:16.656Z,4.05
2022-10-09T11:19:48.308Z,4.30
2022-10-09T11:22:29.552Z,3.92
2022-10-09T11:25:12.136Z,4.07
2022-10-09T11:27:59.076Z,3.67
2022-10-09T11:30:28.522Z,3.63
2022-10-09T11:33:24.310Z,3.60
2022-10-09T11:36:00.384Z,3.60
2022-10-09T11:38:31.705Z,3.22
2022-10-09T11:41:00.731Z,3.63
2022-10-09T11:44:18.343Z,2.77
2022-10-09T11:47:14.890Z,3.33
2022-10-09T11:50:06.182Z,3.97
2022-10-09T11:52:45.199Z,2.95
2022-10-09T11:55:20.367Z,3.17
2022-10-09T11:57:47.654Z,3.00
2022-10-09T12:00:15.767Z,3.10
2022-10-09T12:02:43.465Z,2.90
2022-10-09T12:05:33.251Z,2.60
2022-10-09T12:08:12.947Z,3.00
2022-10-09T12:10:51.124Z,2.70
2022-10-09T12:13:36.290Z,3.03
2022-10-09T12:16:03.641Z,2.80
2022-10-09T12:18:34.007Z,2.50
2022-10-09T12:21:05.055Z,2.45
2022-10-09T12:23:35.249Z,2.30
2022-10-09T12:26:03.576Z,2.72
2022-10-09T12:28:35.980Z,2.92
2022-10-09T12:31:05.458Z,2.90
2022-10-09T12:33:40.030Z,2.95
2022-10-09T12:36:14.564Z,3.08
2022-10-09T12:38:42.059Z,3.15
2022-10-09T12:41:23.032Z,3.38
2022-10-09T12:43:55.449Z,3.50
2022-10-09T12:46:31.771Z,3.83
2022-10-09T12:48:59.787Z,3.38
2022-10-09T12:51:28.495Z,3.42
2022-10-09T12:53:55.114Z,3.25
2022-10-09T12:56:26.839Z,3.80
2022-10-09T13:01:21.735Z,4.07
2022-10-09T13:04:00.328Z,3.92
2022-10-09T13:06:47.927Z,3.97
2022-10-09T13:09:36.913Z,3.80
2022-10-09T13:12:17.729Z,4.32
2022-10-09T13:15:05.767Z,3.75
2022-10-09T13:17:33.849Z,4.28
2022-10-09T13:20:03.788Z,3.70
2022-10-09T13:22:35.206Z,4.40
2022-10-09T13:25:02.909Z,4.20
2022-10-09T13:27:32.562Z,3.88
2022-10-09T13:30:00.402Z,4.07
2022-10-09T13:32:27.176Z,3.95
2022-10-09T13:34:58.001Z,4.20
2022-10-09T13:37:26.507Z,4.20
2022-10-09T13:39:58.909Z,3.90
2022-10-09T13:42:28.088Z,3.92
2022-10-09T13:44:54.523Z,4.38
2022-10-09T13:47:24.430Z,5.68
2022-10-09T13:49:51.378Z,5.70
2022-10-09T13:52:17.876Z,7.13
2022-10-09T13:54:44.880Z,4.53
2022-10-09T13:57:11.388Z,4.03
2022-10-09T13:59:38.162Z,3.90
2022-10-09T14:02:04.845Z,3.60
2022-10-09T14:04:31.330Z,3.90
2022-10-09T14:06:57.731Z,3.53
2022-10-09T14:09:24.403Z,3.85
2022-10-09T14:11:50.812Z,3.53
2022-10-09T14:14:17.243Z,3.78
2022-10-09T14:16:43.945Z,3.47
2022-10-09T14:19:11.636Z,3.50
2022-10-09T14:21:38.266Z,3.80
2022-10-09T14:24:05.445Z,3.30
2022-10-09T14:26:32.481Z,3.05
2022-10-09T14:29:01.124Z,3.17
2022-10-09T14:31:27.829Z,3.10
2022-10-09T14:33:59.439Z,3.70
2022-10-09T14:36:26.828Z,3.47
2022-10-09T14:38:53.253Z,3.42
2022-10-09T14:41:19.920Z,3.53
2022-10-09T14:43:47.470Z,3.55
2022-10-09T14:46:19.220Z,3.50
2022-10-09T14:51:16.550Z,3.17
2022-10-09T14:53:43.461Z,3.47
2022-10-09T14:56:13.370Z,3.20
2022-10-09T14:58:40.455Z,3.63
2022-10-09T15:01:07.741Z,3.35
2022-10-09T15:03:35.262Z,3.67
2022-10-09T15:06:05.220Z,3.60
2022-10-09T15:08:36.462Z,3.20
2022-10-09T15:11:03.003Z,3.15
2022-10-09T15:13:30.073Z,2.80
2022-10-09T15:16:13.915Z,3.28
2022-10-09T15:18:40.650Z,3.30
2022-10-09T15:21:16.441Z,3.38
2022-10-09T15:23:43.208Z,3.15
2022-10-09T15:26:10.624Z,2.97
2022-10-09T15:28:39.036Z,3.33
2022-10-09T15:31:06.924Z,2.80
2022-10-09T15:33:33.636Z,2.78
2022-10-09T15:36:00.596Z,2.55
2022-10-09T15:38:27.020Z,2.47
2022-10-09T15:40:56.712Z,2.58
2022-10-09T15:43:26.129Z,2.30
2022-10-09T15:45:56.135Z,2.60
2022-10-09T15:48:24.378Z,2.28
2022-10-09T15:50:53.509Z,2.08
2022-10-09T15:53:22.240Z,2.00
2022-10-09T15:55:51.029Z,2.30
2022-10-09T15:58:18.531Z,2.03
2022-10-09T16:00:48.279Z,2.17
2022-10-09T16:03:16.515Z,2.15
2022-10-09T16:05:50.889Z,1.83
2022-10-09T16:08:18.826Z,2.15
2022-10-09T16:10:49.043Z,2.00
2022-10-09T16:13:16.198Z,2.00
2022-10-09T16:15:43.587Z,2.05
2022-10-09T16:18:11.236Z,2.38
2022-10-09T16:20:38.844Z,2.30
2022-10-09T16:23:05.409Z,2.17
2022-10-09T16:25:31.903Z,2.70
2022-10-09T16:27:58.453Z,2.70
2022-10-09T16:30:25.075Z,2.30
2022-10-09T16:32:52.108Z,2.75
2022-10-09T16:35:18.897Z,2.83
2022-10-09T16:37:45.437Z,2.53
2022-10-09T16:40:11.988Z,2.70
2022-10-09T16:42:38.386Z,3.17
2022-10-09T16:45:05.668Z,2.92
2022-10-09T16:47:33.869Z,2.80
2022-10-09T16:50:00.344Z,2.85
2022-10-09T16:52:26.735Z,3.60
2022-10-09T16:54:57.023Z,2.53
2022-10-09T16:57:26.062Z,2.75
2022-10-09T16:59:52.867Z,3.17
2022-10-09T17:02:19.308Z,2.97
2022-10-09T17:04:46.163Z,3.17
2022-10-09T17:07:12.601Z,4.60
2022-10-09T17:09:40.420Z,5.18
2022-10-09T17:12:12.939Z,6.18
2022-10-09T17:14:40.659Z,11.60
2022-10-09T17:17:08.996Z,11.15
2022-10-09T17:19:36.180Z,13.05
2022-10-09T17:22:03.200Z,13.05
2022-10-09T17:24:30.385Z,14.55
2022-10-09T17:26:57.037Z,13.20
2022-10-09T17:29:23.875Z,13.82
2022-10-09T17:31:50.639Z,13.45
2022-10-09T17:34:17.739Z,12.80
2022-10-09T17:36:45.191Z,12.77
2022-10-09T17:39:15.071Z,10.88
2022-10-09T17:41:43.285Z,8.05
2022-10-09T17:44:09.772Z,9.10
2022-10-09T17:46:37.192Z,8.70
2022-10-09T17:49:04.109Z,7.97
2022-10-09T17:51:34.774Z,7.95
2022-10-09T17:54:08.180Z,7.72
2022-10-09T17:56:37.495Z,7.22
2022-10-09T17:59:04.450Z,8.13
2022-10-09T18:01:31.693Z,7.55
2022-10-09T18:03:58.396Z,6.90
2022-10-09T18:06:24.997Z,6.47
2022-10-09T18:08:53.924Z,6.50
2022-10-09T18:11:22.078Z,5.85
2022-10-09T18:13:49.212Z,5.97
2022-10-09T18:16:23.976Z,5.70
2022-10-09T18:18:50.600Z,6.03
2022-10-09T18:21:17.726Z,5.90
2022-10-09T18:23:47.629Z,6.07
2022-10-09T18:26:16.912Z,6.88
2022-10-09T18:28:47.494Z,7.32
2022-10-09T18:31:20.273Z,7.50
2022-10-09T18:33:47.477Z,7.50
2022-10-09T18:36:30.627Z,7.78
2022-10-09T18:39:13.195Z,8.68
2022-10-09T18:41:39.810Z,10.55
2022-10-09T18:44:09.626Z,11.07
2022-10-09T18:46:39.200Z,11.48
2022-10-09T18:49:09.874Z,10.85
2022-10-09T18:51:37.749Z,12.63
2022-10-09T18:54:06.225Z,13.90
2022-10-09T18:56:34.160Z,15.55
2022-10-09T18:59:03.595Z,17.95
2022-10-09T19:01:30.019Z,16.77
2022-10-09T19:03:56.521Z,15.65
2022-10-09T19:06:23.198Z,15.02
2022-10-09T19:08:49.697Z,13.23
2022-10-09T19:11:16.187Z,15.23
2022-10-09T19:13:43.883Z,17.20
2022-10-09T19:16:10.455Z,16.98
2022-10-09T19:18:37.857Z,19.25
2022-10-09T19:21:04.567Z,19.45
2022-10-09T19:23:31.335Z,19.75
2022-10-09T19:25:58.881Z,19.30
2022-10-09T19:28:27.774Z,18.55
2022-10-09T19:30:54.479Z,16.48
2022-10-09T19:33:20.951Z,16.33
2022-10-09T19:35:53.389Z,14.77
2022-10-09T19:38:21.028Z,13.02
2022-10-09T19:40:48.005Z,13.85
2022-10-09T19:43:15.957Z,14.60
2022-10-09T19:45:43.007Z,13.80
2022-10-09T19:48:09.500Z,12.77
2022-10-09T19:50:43.624Z,13.02
2022-10-09T19:53:11.175Z,14.13
2022-10-09T19:55:38.042Z,12.73
2022-10-09T19:58:05.075Z,12.27
2022-10-09T20:00:31.527Z,12.55
2022-10-09T20:02:57.963Z,11.38
2022-10-09T20:05:24.483Z,11.43
2022-10-09T20:07:50.873Z,12.05
2022-10-09T20:10:17.820Z,11.18
2022-10-09T20:12:44.433Z,10.90
2022-10-09T20:15:10.934Z,10.98
2022-10-09T20:17:37.328Z,11.75
2022-10-09T20:20:05.039Z,10.95
2022-10-09T20:22:31.437Z,10.38
2022-10-09T20:24:57.824Z,11.05
2022-10-09T20:27:24.227Z,11.38
2022-10-09T20:29:52.649Z,11.50
2022-10-09T20:32:19.048Z,11.82
2022-10-09T20:34:45.761Z,10.68
2022-10-09T20:37:12.179Z,10.80
2022-10-09T20:39:38.570Z,11.65
2022-10-09T20:42:05.052Z,13.43
2022-10-09T20:44:31.619Z,13.80
2022-10-09T20:46:58.006Z,21.17
2022-10-09T20:49:24.617Z,32.13
2022-10-09T20:51:53.000Z,22.27
2022-10-09T20:54:21.200Z,16.80
2022-10-09T20:56:48.823Z,13.95
2022-10-09T20:59:16.019Z,15.52
2022-10-09T21:01:42.690Z,15.50
2022-10-09T21:04:11.026Z,15.95
2022-10-09T21:06:37.679Z,14.93
2022-10-09T21:09:04.503Z,13.95
2022-10-09T21:11:32.429Z,12.20
2022-10-09T21:13:58.800Z,11.25
2022-10-09T21:16:25.751Z,9.77
2022-10-09T21:19:00.597Z,9.77
2022-10-09T21:21:27.663Z,9.30
2022-10-09T21:23:56.532Z,8.63
2022-10-09T21:26:24.591Z,9.45
2022-10-09T21:28:56.759Z,8.73
2022-10-09T21:31:27.325Z,8.57
2022-10-09T21:33:54.327Z,9.00
2022-10-09T21:36:29.568Z,8.68
2022-10-09T21:38:56.115Z,9.02
2022-10-09T21:41:22.746Z,8.38
2022-10-09T21:43:49.104Z,8.52
2022-10-09T21:46:15.500Z,9.25
2022-10-09T21:48:41.877Z,7.70
2022-10-09T21:51:08.344Z,7.80
2022-10-09T21:53:34.944Z,8.30
2022-10-09T21:56:05.623Z,8.88
2022-10-09T21:58:32.534Z,8.23
2022-10-09T22:01:01.284Z,8.52
2022-10-09T22:03:30.487Z,7.93
2022-10-09T22:05:57.056Z,7.90
2022-10-09T22:08:24.100Z,7.93
2022-10-09T22:10:50.550Z,8.32
2022-10-09T22:13:18.350Z,8.05
2022-10-09T22:15:50.163Z,8.48
2022-10-09T22:18:17.755Z,8.57
2022-10-09T22:20:46.727Z,7.30
2022-10-09T22:23:14.084Z,8.18
2022-10-09T22:25:40.499Z,8.05
2022-10-09T22:28:07.510Z,8.55
2022-10-09T22:30:34.495Z,7.70
2022-10-09T22:33:00.964Z,7.97
2022-10-09T22:35:27.620Z,7.28
2022-10-09T22:37:54.077Z,7.70
2022-10-09T22:40:20.603Z,6.70
2022-10-09T22:42:47.248Z,8.30
2022-10-09T22:45:13.868Z,7.03
2022-10-09T22:47:40.301Z,8.05
2022-10-09T22:50:07.093Z,7.65
2022-10-09T22:52:33.464Z,7.18
2022-10-09T22:55:00.539Z,7.85
2022-10-09T22:57:26.930Z,7.68
2022-10-09T22:59:53.303Z,7.25
2022-10-09T23:02:19.714Z,7.22
2022-10-09T23:04:46.083Z,6.90
2022-10-09T23:07:12.511Z,7.07
2022-10-09T23:09:38.887Z,6.95
2022-10-09T23:12:05.378Z,7.05
2022-10-09T23:14:31.865Z,6.57
2022-10-09T23:16:58.238Z,6.47
2022-10-09T23:19:24.606Z,6.40
2022-10-09T23:21:50.974Z,6.32
2022-10-09T23:24:17.875Z,6.47
2022-10-09T23:26:46.092Z,6.32
2022-10-09T23:29:17.908Z,6.00
2022-10-09T23:34:11.503Z,5.53
2022-10-09T23:36:37.957Z,5.85
2022-10-09T23:39:06.055Z,6.22
2022-10-09T23:41:32.844Z,5.75
2022-10-09T23:43:59.400Z,5.93
2022-10-09T23:46:29.515Z,5.82
2022-10-09T23:48:55.928Z,5.82
2022-10-09T23:51:24.095Z,5.68
2022-10-09T23:53:51.288Z,5.50
2022-10-09T23:56:23.843Z,5.72
2022-10-09T23:58:50.864Z,6.00
